Aviation Digital Data Service (ADDS)

Output produced by TAFs form (2031 UTC 20 July 2018)
found at http://www.aviationweather.gov/adds/tafs/
 
KAND 201956Z AUTO 03007KT 10SM CLR 30/17 A2999 RMK AO2 SLP142 T03000167
KAND 201737Z 2018/2118 06008KT P6SM SCT050 
     FM210100 00000KT P6SM SCT150 
     FM211400 22005KT P6SM SCT050 BKN200 
     FM211600 23007KT P6SM VCSH BKN050